Map

Track Data

SID SEASON NUMBER BASIN SUBBASIN NAME ISO_TIME NATURE LAT LON WMO_WIND WMO_PRES WMO_AGENCY TRACK_TYPE DIST2LAND LANDFALL IFLAG USA_AGENCY USA_ATCF_ID USA_LAT USA_LON USA_RECORD USA_STATUS USA_WIND USA_PRES USA_SSHS USA_R34_NE USA_R34_SE USA_R34_SW USA_R34_NW USA_R50_NE USA_R50_SE USA_R50_SW USA_R50_NW USA_R64_NE USA_R64_SE USA_R64_SW USA_R64_NW USA_POCI USA_ROCI USA_RMW USA_EYE TOKYO_LAT TOKYO_LON TOKYO_GRADE TOKYO_WIND TOKYO_PRES TOKYO_R50_DIR TOKYO_R50_LONG TOKYO_R50_SHORT TOKYO_R30_DIR TOKYO_R30_LONG TOKYO_R30_SHORT TOKYO_LAND CMA_LAT CMA_LON CMA_CAT CMA_WIND CMA_PRES HKO_LAT HKO_LON HKO_CAT HKO_WIND HKO_PRES NEWDELHI_LAT NEWDELHI_LON NEWDELHI_GRADE NEWDELHI_WIND NEWDELHI_PRES NEWDELHI_CI NEWDELHI_DP NEWDELHI_POCI REUNION_LAT REUNION_LON REUNION_TYPE REUNION_WIND REUNION_PRES REUNION_TNUM REUNION_CI REUNION_RMW REUNION_R34_NE REUNION_R34_SE REUNION_R34_SW REUNION_R34_NW REUNION_R50_NE REUNION_R50_SE REUNION_R50_SW REUNION_R50_NW REUNION_R64_NE REUNION_R64_SE REUNION_R64_SW REUNION_R64_NW BOM_LAT BOM_LON BOM_TYPE BOM_WIND BOM_PRES BOM_TNUM BOM_CI BOM_RMW BOM_R34_NE BOM_R34_SE BOM_R34_SW BOM_R34_NW BOM_R50_NE BOM_R50_SE BOM_R50_SW BOM_R50_NW BOM_R64_NE BOM_R64_SE BOM_R64_SW BOM_R64_NW BOM_ROCI BOM_POCI BOM_EYE BOM_POS_METHOD BOM_PRES_METHOD NADI_LAT NADI_LON NADI_CAT NADI_WIND NADI_PRES WELLINGTON_LAT WELLINGTON_LON WELLINGTON_WIND WELLINGTON_PRES DS824_LAT DS824_LON DS824_STAGE DS824_WIND DS824_PRES TD9636_LAT TD9636_LON TD9636_STAGE TD9636_WIND TD9636_PRES TD9635_LAT TD9635_LON TD9635_WIND TD9635_PRES TD9635_ROCI NEUMANN_LAT NEUMANN_LON NEUMANN_CLASS NEUMANN_WIND NEUMANN_PRES MLC_LAT MLC_LON MLC_CLASS MLC_WIND MLC_PRES USA_GUST BOM_GUST BOM_GUST_PER REUNION_GUST REUNION_GUST_PER USA_SEAHGT USA_SEARAD_NE USA_SEARAD_SE USA_SEARAD_SW USA_SEARAD_NW STORM_SPEED STORM_DIR
1994078N06096 1994 21 NI BB NOT_NAMED 1994-03-18 18:00:00 NR 6.30000 96.1000 main 92 85 O_____________ jtwc_io IO011994 6.30000 96.1000 15 -1 6 269
1994078N06096 1994 21 NI BB NOT_NAMED 1994-03-18 21:00:00 NR 6.29501 95.8125 main 85 78 P_____________ IO011994 6.29501 95.8125 15 -1 6 270
1994078N06096 1994 21 NI BB NOT_NAMED 1994-03-19 00:00:00 NR 6.30000 95.5000 main 78 78 O_____________ jtwc_io IO011994 6.30000 95.5000 15 -1 7 273
1994078N06096 1994 21 NI BB NOT_NAMED 1994-03-19 03:00:00 NR 6.32751 95.1500 main 78 79 P_____________ IO011994 6.32751 95.1500 15 -1 7 278
1994078N06096 1994 21 NI BB NOT_NAMED 1994-03-19 06:00:00 NR 6.40000 94.8000 main 99 99 O_____________ jtwc_io IO011994 6.40000 94.8000 15 -1 7 288
1994078N06096 1994 21 NI BB NOT_NAMED 1994-03-19 09:00:00 NR 6.53497 94.4925 main 127 127 P_____________ IO011994 6.53497 94.4925 15 -1 7 297
1994078N06096 1994 21 NI BB NOT_NAMED 1994-03-19 12:00:00 NR 6.70000 94.2000 main 165 165 O_____________ jtwc_io IO011994 6.70000 94.2000 15 -1 7 297
1994078N06096 1994 21 NI BB NOT_NAMED 1994-03-19 15:00:00 NR 6.84249 93.8925 main 196 196 P_____________ IO011994 6.84249 93.8925 15 -1 7 297
1994078N06096 1994 21 NI BB NOT_NAMED 1994-03-19 18:00:00 NR 7.00000 93.6000 main 236 236 O_____________ jtwc_io IO011994 7.00000 93.6000 15 -1 7 302
1994078N06096 1994 21 NI BB NOT_NAMED 1994-03-19 21:00:00 NR 7.18499 93.3350 main 276 276 P_____________ IO011994 7.18499 93.3350 17 -1 6 309
1994078N06096 1994 21 NI BB NOT_NAMED 1994-03-20 00:00:00 NR 7.40000 93.1000 main 307 307 O_____________ jtwc_io IO011994 7.40000 93.1000 20 -1 6 317
1994078N06096 1994 21 NI BB NOT_NAMED 1994-03-20 03:00:00 NR 7.64998 92.8925 main 338 338 P_____________ IO011994 7.64998 92.8925 20 -1 6 322
1994078N06096 1994 21 NI BB NOT_NAMED 1994-03-20 06:00:00 NR 7.90000 92.7000 main 377 377 O_____________ jtwc_io IO011994 7.90000 92.7000 20 -1 6 319
1994078N06096 1994 21 NI BB NOT_NAMED 1994-03-20 09:00:00 NR 8.10000 92.4925 main 409 409 P_____________ IO011994 8.10000 92.4925 20 -1 6 315
1994078N06096 1994 21 NI BB NOT_NAMED 1994-03-20 12:00:00 NR 8.30000 92.3000 main 440 440 O_____________ jtwc_io IO011994 8.30000 92.3000 20 -1 6 322
1994078N06096 1994 21 NI BB NOT_NAMED 1994-03-20 15:00:00 NR 8.54249 92.1425 main 472 472 P_____________ IO011994 8.54249 92.1425 20 -1 6 329
1994078N06096 1994 21 NI BB NOT_NAMED 1994-03-20 18:00:00 NR 8.80000 92.0000 main 503 503 O_____________ jtwc_io IO011994 8.80000 92.0000 20 -1 6 330
1994078N06096 1994 21 NI BB NOT_NAMED 1994-03-20 21:00:00 NR 9.04999 91.8500 main 534 534 P_____________ IO011994 9.04999 91.8500 22 -1 6 329
1994078N06096 1994 21 NI BB NOT_NAMED 1994-03-21 00:00:00 NR 9.30000 91.7000 main 566 566 O_____________ jtwc_io IO011994 9.30000 91.7000 25 -1 6 329
1994078N06096 1994 21 NI BB NOT_NAMED 1994-03-21 03:00:00 NR 9.54999 91.5500 main 590 597 P_____________ IO011994 9.54999 91.5500 25 -1 6 329
1994078N06096 1994 21 NI BB NOT_NAMED 1994-03-21 06:00:00 NR 9.80000 91.4000 main 630 630 O_____________ jtwc_io IO011994 9.80000 91.4000 25 -1 6 329
1994078N06096 1994 21 NI BB NOT_NAMED 1994-03-21 09:00:00 NR 10.0500 91.2425 main 669 669 P_____________ IO011994 10.0500 91.2425 25 -1 6 329
1994078N06096 1994 21 NI BB NOT_NAMED 1994-03-21 12:00:00 NR 10.3000 91.1000 main 693 693 O_____________ jtwc_io IO011994 10.3000 91.1000 25 -1 6 334
1994078N06096 1994 21 NI BB NOT_NAMED 1994-03-21 15:00:00 NR 10.5500 90.9925 main 698 675 P_____________ IO011994 10.5500 90.9925 25 -1 5 338
1994078N06096 1994 21 NI BB NOT_NAMED 1994-03-21 18:00:00 NR 10.8000 90.9000 main 675 663 O_____________ jtwc_io IO011994 10.8000 90.9000 25 -1 5 339
1994078N06096 1994 21 NI BB NOT_NAMED 1994-03-21 21:00:00 NR 11.0500 90.8000 main 663 643 P_____________ IO011994 11.0500 90.8000 25 -1 5 338
1994078N06096 1994 21 NI BB NOT_NAMED 1994-03-22 00:00:00 NR 11.3000 90.7000 main 643 632 O_____________ jtwc_io IO011994 11.3000 90.7000 25 -1 6 338
1994078N06096 1994 21 NI BB NOT_NAMED 1994-03-22 03:00:00 NR 11.5575 90.5925 main 624 614 P_____________ IO011994 11.5575 90.5925 27 -1 5 338
1994078N06096 1994 21 NI BB NOT_NAMED 1994-03-22 06:00:00 NR 11.8000 90.5000 main 614 598 O_____________ jtwc_io IO011994 11.8000 90.5000 30 -1 5 342
1994078N06096 1994 21 NI BB NOT_NAMED 1994-03-22 09:00:00 NR 12.0075 90.4425 main 606 590 P_____________ IO011994 12.0075 90.4425 30 -1 4 347
1994078N06096 1994 21 NI BB NOT_NAMED 1994-03-22 12:00:00 NR 12.2000 90.4000 main 590 582 O_____________ jtwc_io IO011994 12.2000 90.4000 30 -1 4 346
1994078N06096 1994 21 NI BB NOT_NAMED 1994-03-22 15:00:00 NR 12.4000 90.3350 main 582 567 P_____________ IO011994 12.4000 90.3350 32 -1 4 347
1994078N06096 1994 21 NI BB NOT_NAMED 1994-03-22 18:00:00 NR 12.6000 90.3000 main 567 552 O_____________ jtwc_io IO011994 12.6000 90.3000 35 0 4 0
1994078N06096 1994 21 NI BB NOT_NAMED 1994-03-22 21:00:00 NR 12.8075 90.3499 main 552 529 P_____________ IO011994 12.8075 90.3499 35 0 4 13
1994078N06096 1994 21 NI BB NOT_NAMED 1994-03-23 00:00:00 NR 13.0000 90.4000 main 529 515 O_____________ jtwc_io IO011994 13.0000 90.4000 35 0 4 4
1994078N06096 1994 21 NI BB NOT_NAMED 1994-03-23 03:00:00 NR 13.1800 90.3725 main 515 515 P_____________ IO011994 13.1800 90.3725 37 0 3 343
1994078N06096 1994 21 NI BB NOT_NAMED 1994-03-23 06:00:00 NR 13.3000 90.3000 main 517 517 O_____________ jtwc_io IO011994 13.3000 90.3000 40 0 2 316
1994078N06096 1994 21 NI BB NOT_NAMED 1994-03-23 09:00:00 NR 13.3375 90.2150 main 525 525 P_____________ IO011994 13.3375 90.2150 40 0 2 270
1994078N06096 1994 21 NI BB NOT_NAMED 1994-03-23 12:00:00 NR 13.3000 90.1000 main 534 534 O_____________ jtwc_io IO011994 13.3000 90.1000 40 0 3 249
1994078N06096 1994 21 NI BB NOT_NAMED 1994-03-23 15:00:00 NR 13.2375 89.9500 main 550 550 P_____________ IO011994 13.2375 89.9500 37 0 4 236
1994078N06096 1994 21 NI BB NOT_NAMED 1994-03-23 18:00:00 NR 13.1000 89.8000 main 574 574 O_____________ jtwc_io IO011994 13.1000 89.8000 35 0 5 215
1994078N06096 1994 21 NI BB NOT_NAMED 1994-03-23 21:00:00 NR 12.8650 89.6850 main 596 596 P_____________ IO011994 12.8650 89.6850 35 0 5 201
1994078N06096 1994 21 NI BB NOT_NAMED 1994-03-24 00:00:00 NR 12.6000 89.6000 main 625 625 O_____________ jtwc_io IO011994 12.6000 89.6000 35 0 5 196
1994078N06096 1994 21 NI BB NOT_NAMED 1994-03-24 03:00:00 NR 12.4000 89.5501 main 639 639 P_____________ IO011994 12.4000 89.5501 32 -1 4 193
1994078N06096 1994 21 NI BB NOT_NAMED 1994-03-24 06:00:00 NR 12.2000 89.5000 main 661 661 O_____________ jtwc_io IO011994 12.2000 89.5000 30 -1 5 198
1994078N06096 1994 21 NI BB NOT_NAMED 1994-03-24 09:00:00 NR 11.9500 89.4000 main 684 684 P_____________ IO011994 11.9500 89.4000 30 -1 5 201
1994078N06096 1994 21 NI BB NOT_NAMED 1994-03-24 12:00:00 NR 11.7000 89.3000 main 715 715 O_____________ jtwc_io IO011994 11.7000 89.3000 30 -1 5 197
1994078N06096 1994 21 NI BB NOT_NAMED 1994-03-24 15:00:00 NR 11.5075 89.2576 main 730 730 P_____________ IO011994 11.5075 89.2576 30 -1 4 193
1994078N06096 1994 21 NI BB NOT_NAMED 1994-03-24 18:00:00 NR 11.3000 89.2000 main 754 754 O_____________ jtwc_io IO011994 11.3000 89.2000 30 -1 5 199
1994078N06096 1994 21 NI BB NOT_NAMED 1994-03-24 21:00:00 NR 11.0225 89.0800 main 785 785 P_____________ IO011994 11.0225 89.0800 27 -1 7 206
1994078N06096 1994 21 NI BB NOT_NAMED 1994-03-25 00:00:00 NR 10.7000 88.9000 main 824 820 O_____________ jtwc_io IO011994 10.7000 88.9000 25 -1 8 210
1994078N06096 1994 21 NI BB NOT_NAMED 1994-03-25 03:00:00 NR 10.3649 88.6951 main 820 774 P_____________ IO011994 10.3649 88.6951 25 -1 9 215
1994078N06096 1994 21 NI BB NOT_NAMED 1994-03-25 06:00:00 NR 10.0000 88.4000 main 774 718 O_____________ jtwc_io IO011994 10.0000 88.4000 25 -1 10 223
1994078N06096 1994 21 NI BB NOT_NAMED 1994-03-25 09:00:00 NR 9.60769 87.9847 main 718 652 P_____________ IO011994 9.60769 87.9847 22 -1 12 228
1994078N06096 1994 21 NI BB NOT_NAMED 1994-03-25 12:00:00 NR 9.20000 87.5000 main 652 O_____________ jtwc_io IO011994 9.20000 87.5000 20 -1 13 230

About IBTrACS Database

This database is a web-friendly format of International Best Track Archive for Climate Stewardship (IBTrACS), a global best track data archive curated by NOAA dating back to 1842.

Updated: 2021-11-26